Time;durP1;ratioP1;P1;durP2;ratioP2;P2;SDS_P1;SDS_P2;PMS_P1;PMS_P2;Temp;Humidity;BMP_temperature;BMP_pressure;BME280_temperature;BME280_humidity;BME280_pressure;Samples;Min_cycle;Max_cycle;Signal;HPM_P1;HPM_P2
2022/04/20 00:02:14;;;;;;;5.97;5.20;;;;;;;7.41;51.97;100963.88;1707874;84;20930;-74
2022/04/20 00:04:40;;;;;;;6.22;4.78;;;;;;;7.41;51.98;100965.59;1708248;84;20935;-74
2022/04/20 00:07:06;;;;;;;5.47;4.90;;;;;;;7.37;52.21;100958.30;1708476;84;20891;-74
2022/04/20 00:09:34;;;;;;;5.22;4.70;;;;;;;7.36;52.29;100964.72;1708238;82;20887;-74
2022/04/20 00:12:01;;;;;;;5.42;4.87;;;;;;;7.33;52.43;100957.86;1707974;83;20911;-75
2022/04/20 00:14:27;;;;;;;6.60;5.03;;;;;;;7.34;52.99;100954.43;1708458;83;20831;-74
2022/04/20 00:16:53;;;;;;;5.70;4.72;;;;;;;7.34;52.99;100954.43;1706728;82;21054;-74
2022/04/20 00:19:19;;;;;;;4.97;4.43;;;;;;;7.36;52.93;100956.58;1706152;83;21018;-76
2022/04/20 00:21:54;;;;;;;7.22;5.60;;;;;;;7.37;52.93;100956.16;1705535;84;21066;-75
2022/04/20 00:24:20;;;;;;;6.23;4.67;;;;;;;7.37;53.00;100954.86;1706177;83;20990;-75
2022/04/20 00:26:46;;;;;;;6.63;5.07;;;;;;;7.36;53.07;100949.29;1705660;84;20994;-75
2022/04/20 00:29:12;;;;;;;6.15;5.12;;;;;;;7.35;53.23;100953.58;1705764;84;21043;-75
2022/04/20 00:31:38;;;;;;;6.63;5.37;;;;;;;7.36;53.36;100952.72;1705777;83;21064;-75
2022/04/20 00:34:04;;;;;;;7.50;4.63;;;;;;;7.37;53.47;100952.30;1705719;84;21740;-75
2022/04/20 00:36:30;;;;;;;5.70;5.15;;;;;;;7.37;53.54;100953.16;1705950;84;21062;-75
2022/04/20 00:38:56;;;;;;;5.92;5.20;;;;;;;7.36;53.54;100957.00;1705805;82;21046;-75
2022/04/20 00:41:22;;;;;;;5.60;4.90;;;;;;;7.36;53.74;100948.86;1706052;84;20945;-75
2022/04/20 00:43:49;;;;;;;6.65;5.17;;;;;;;7.36;53.92;100949.29;1706259;83;21038;-76
2022/04/20 00:46:19;;;;;;;5.75;5.15;;;;;;;7.35;53.98;100943.71;1705865;84;21080;-75
2022/04/20 00:48:46;;;;;;;8.08;5.12;;;;;;;7.31;53.96;100942.41;1705888;83;21098;-74
2022/04/20 00:51:14;;;;;;;6.80;6.10;;;;;;;7.29;53.97;100935.13;1695443;84;21074;-74
2022/04/20 00:53:40;;;;;;;8.07;6.10;;;;;;;7.28;54.10;100944.12;1705208;82;20938;-77
2022/04/20 00:56:06;;;;;;;6.00;5.50;;;;;;;7.25;54.37;100939.86;1705032;84;21715;-74
2022/04/20 00:58:41;;;;;;;6.22;5.62;;;;;;;7.24;54.43;100933.42;1704971;83;21085;-75
2022/04/20 01:01:08;;;;;;;9.15;6.00;;;;;;;7.24;54.51;100930.85;1706688;83;21400;-76
2022/04/20 01:03:34;;;;;;;6.50;5.87;;;;;;;7.24;54.64;100933.00;1707226;84;20907;-75
2022/04/20 01:06:00;;;;;;;5.95;5.35;;;;;;;7.24;54.65;100925.28;1707458;83;20927;-74
2022/04/20 01:08:29;;;;;;;9.83;6.67;;;;;;;7.24;54.84;100931.71;1705255;83;20923;-75
2022/04/20 01:10:55;;;;;;;6.15;5.55;;;;;;;7.22;55.17;100932.56;1704914;84;21073;-75
2022/04/20 01:13:28;;;;;;;8.85;6.05;;;;;;;7.18;55.07;100925.27;1704748;84;21009;-75
2022/04/20 01:15:55;;;;;;;6.47;5.62;;;;;;;7.18;55.15;100928.27;1704941;83;21064;-75
2022/04/20 01:18:21;;;;;;;6.20;5.60;;;;;;;7.16;55.31;100921.83;1705259;83;21042;-75
2022/04/20 01:20:50;;;;;;;9.03;5.97;;;;;;;7.18;55.37;100925.27;1704757;84;21069;-75
2022/04/20 01:23:19;;;;;;;6.75;5.58;;;;;;;7.16;55.45;100924.41;1692181;84;21078;-74
2022/04/20 01:25:45;;;;;;;6.87;6.23;;;;;;;7.16;55.55;100924.83;1705540;83;21038;-75
2022/04/20 01:28:15;;;;;;;7.92;6.10;;;;;;;7.12;55.58;100923.96;1704689;83;21077;-75
2022/04/20 01:30:41;;;;;;;7.08;6.03;;;;;;;7.11;55.67;100929.95;1707122;83;20927;-75
2022/04/20 01:33:08;;;;;;;10.70;6.30;;;;;;;7.13;55.79;100931.25;1707535;83;20898;-75
2022/04/20 01:35:34;;;;;;;8.28;6.50;;;;;;;7.14;55.95;100929.11;1707568;84;20899;-77
2022/04/20 01:38:00;;;;;;;6.78;6.10;;;;;;;7.15;56.04;100926.55;1707351;84;20883;-74
2022/04/20 01:40:27;;;;;;;6.03;5.53;;;;;;;7.16;56.06;100928.27;1707713;83;20899;-75
2022/04/20 01:42:53;;;;;;;5.70;5.15;;;;;;;7.17;56.08;100922.27;1707216;84;21002;-75
2022/04/20 01:45:19;;;;;;;7.03;6.43;;;;;;;7.16;56.20;100924.83;1705460;83;21046;-76
2022/04/20 01:47:45;;;;;;;7.13;6.17;;;;;;;7.13;56.35;100920.53;1688549;84;21672;-75
2022/04/20 01:50:11;;;;;;;8.33;6.57;;;;;;;7.13;56.39;100917.97;1705687;84;21329;-74
2022/04/20 01:52:38;;;;;;;7.50;6.22;;;;;;;7.12;56.51;100911.53;1704860;82;21015;-76
2022/04/20 01:55:06;;;;;;;8.07;6.37;;;;;;;7.10;56.55;100906.81;1705437;83;20903;-76
2022/04/20 01:57:33;;;;;;;7.22;6.45;;;;;;;7.08;56.67;100896.52;1705931;83;20962;-75
2022/04/20 02:00:00;;;;;;;6.75;6.12;;;;;;;7.09;56.73;100893.52;1705130;83;21468;-74
2022/04/20 02:02:35;;;;;;;6.85;6.25;;;;;;;7.08;56.76;100899.09;1692949;84;21030;-76
2022/04/20 02:05:04;;;;;;;6.75;5.78;;;;;;;7.07;56.80;100892.66;1705366;84;20985;-75
2022/04/20 02:07:34;;;;;;;6.35;5.75;;;;;;;7.07;56.88;100893.95;1534466;84;10000573;-74
2022/04/20 02:10:01;;;;;;;7.30;6.62;;;;;;;7.07;56.96;100885.80;1705131;84;20966;-75
2022/04/20 02:12:27;;;;;;;;;;;;;;;7.07;57.14;100884.95;1708614;83;21088;-75
2022/04/20 02:14:54;;;;;;;6.50;5.80;;;;;;;7.06;58.15;100884.52;1703781;83;20439;-74
2022/04/20 02:17:21;;;;;;;6.67;6.08;;;;;;;7.06;57.18;100881.52;1705093;83;21642;-74
2022/04/20 02:19:48;;;;;;;6.25;5.75;;;;;;;7.04;57.27;100878.08;1705937;83;21050;-75
2022/04/20 02:22:14;;;;;;;;;;;;;;;7.05;57.38;100873.80;1708097;83;21026;-74
2022/04/20 02:24:41;;;;;;;6.10;5.50;;;;;;;7.05;58.48;100877.66;1705481;83;20892;-74
2022/04/20 02:27:11;;;;;;;7.50;6.42;;;;;;;7.05;57.56;100869.94;1705208;83;21022;-74
2022/04/20 02:29:38;;;;;;;7.50;6.70;;;;;;;7.05;57.63;100866.08;1706920;84;20911;-74
2022/04/20 02:32:07;;;;;;;7.50;6.90;;;;;;;7.05;57.49;100859.66;1707710;83;20876;-73
2022/04/20 02:34:33;;;;;;;7.58;6.72;;;;;;;7.02;57.66;100855.37;1707150;84;20911;-75
2022/04/20 02:36:59;;;;;;;6.90;6.20;;;;;;;7.01;57.77;100852.36;1707762;83;22030;-75
2022/04/20 02:39:26;;;;;;;10.75;6.92;;;;;;;7.01;57.81;100848.94;1707647;84;20907;-74
2022/04/20 02:41:53;;;;;;;7.60;6.47;;;;;;;6.98;57.93;100849.36;1707082;84;20892;-75
2022/04/20 02:44:31;;;;;;;10.65;6.55;;;;;;;6.99;57.93;100851.50;1707220;83;20904;-75
2022/04/20 02:46:57;;;;;;;6.75;6.00;;;;;;;6.96;58.00;100852.35;1707644;84;21468;-75
2022/04/20 02:49:23;;;;;;;6.62;6.00;;;;;;;6.93;58.06;100850.20;1707782;83;20955;-75
2022/04/20 02:51:50;;;;;;;8.35;5.85;;;;;;;6.91;58.14;100859.62;1706967;83;21411;-74
2022/04/20 02:54:16;;;;;;;7.53;6.80;;;;;;;6.89;58.23;100860.04;1701986;83;20863;-75
2022/04/20 02:56:45;;;;;;;6.85;6.05;;;;;;;6.87;58.24;100856.18;1715414;83;21709;-76
2022/04/20 02:59:11;;;;;;;7.03;6.17;;;;;;;6.86;58.36;100860.89;1712447;82;20886;-75
2022/04/20 03:01:37;;;;;;;7.27;6.13;;;;;;;6.87;58.43;100859.17;1715818;83;22193;-74
2022/04/20 03:04:03;;;;;;;7.03;5.65;;;;;;;6.89;58.58;100857.47;1715332;83;123028;-74
2022/04/20 03:06:30;;;;;;;6.72;5.78;;;;;;;6.87;58.47;100857.89;1716509;83;21514;-75
2022/04/20 03:08:56;;;;;;;6.33;5.67;;;;;;;6.85;58.48;100861.74;1715429;83;20934;-75
2022/04/20 03:11:22;;;;;;;7.85;6.62;;;;;;;6.85;58.67;100859.60;1706894;83;20982;-74
2022/04/20 03:13:48;;;;;;;7.55;6.15;;;;;;;6.85;58.73;100854.03;1694943;83;21423;-75
2022/04/20 03:16:15;;;;;;;7.00;5.93;;;;;;;6.88;58.67;100857.04;1715702;82;21353;-75
2022/04/20 03:18:41;;;;;;;;;;;;;;;6.88;58.67;100857.04;1718037;82;21656;-74
2022/04/20 03:21:07;;;;;;;6.45;5.75;;;;;;;6.90;59.53;100860.47;1715679;82;20194;-74
2022/04/20 03:23:33;;;;;;;7.03;5.83;;;;;;;6.88;58.96;100859.61;1715660;83;20835;-75
2022/04/20 03:26:00;;;;;;;7.37;6.20;;;;;;;6.87;59.03;100862.61;1716251;82;21601;-74
2022/04/20 03:28:30;;;;;;;7.35;5.70;;;;;;;6.89;59.17;100862.61;1713795;82;21618;-74
2022/04/20 03:30:56;;;;;;;6.93;6.20;;;;;;;6.90;59.16;100861.33;1691702;83;20969;-74
2022/04/20 03:33:22;;;;;;;7.12;5.67;;;;;;;6.92;59.18;100858.34;1713715;82;21513;-75
2022/04/20 03:35:49;;;;;;;7.47;6.62;;;;;;;6.94;59.26;100848.06;1713266;83;21669;-75
2022/04/20 03:38:15;;;;;;;8.10;6.15;;;;;;;6.95;59.35;100844.64;1713567;82;27351;-75
2022/04/20 03:40:41;;;;;;;6.10;5.50;;;;;;;6.97;59.39;100848.06;1712961;82;22255;-75
2022/04/20 03:43:07;;;;;;;6.87;6.20;;;;;;;6.96;59.43;100849.78;1713289;83;20890;-75
2022/04/20 03:45:35;;;;;;;11.53;6.37;;;;;;;6.97;59.52;100848.06;1711935;83;21061;-75
2022/04/20 03:48:00;;;;;;;9.20;5.90;;;;;;;6.98;59.54;100851.93;1713737;82;21109;-75
2022/04/20 03:50:26;;;;;;;6.43;5.80;;;;;;;6.98;59.64;100845.93;1711280;83;21003;-75
2022/04/20 03:52:52;;;;;;;6.78;5.97;;;;;;;6.98;59.60;100849.78;1714086;82;21050;-76
2022/04/20 03:55:18;;;;;;;7.43;5.53;;;;;;;6.97;59.67;100848.92;1711634;82;20970;-76
2022/04/20 03:57:53;;;;;;;5.54;4.86;;;;;;;6.96;59.69;100846.35;1157290;83;10002222;-75
2022/04/20 04:00:20;;;;;;;8.13;6.50;;;;;;;6.93;59.76;100839.92;1514268;85;10000124;-75
2022/04/20 04:02:46;;;;;;;7.25;5.97;;;;;;;6.92;59.83;100845.48;1629504;86;21074;-75
2022/04/20 04:05:12;;;;;;;5.97;5.37;;;;;;;6.89;59.84;100847.19;1635959;86;20884;-75
2022/04/20 04:07:40;;;;;;;7.40;5.70;;;;;;;6.88;59.90;100847.61;1629933;86;21002;-75
2022/04/20 04:10:08;;;;;;;6.33;5.72;;;;;;;6.86;59.91;100845.47;1605396;86;21114;-75
2022/04/20 04:12:40;;;;;;;7.95;5.90;;;;;;;6.87;60.04;100836.05;1584860;89;20966;-74
2022/04/20 04:15:07;;;;;;;5.47;4.97;;;;;;;6.88;60.13;100839.05;1588639;90;20974;-74
2022/04/20 04:17:34;;;;;;;7.47;5.70;;;;;;;6.87;60.06;100838.62;1639251;86;21550;-74
2022/04/20 04:20:04;;;;;;;7.05;5.92;;;;;;;6.87;60.19;100837.33;1592574;89;20941;-75
2022/04/20 04:22:30;;;;;;;9.63;5.37;;;;;;;6.87;60.26;100839.47;1576053;89;20982;-74
2022/04/20 04:24:57;;;;;;;7.58;5.60;;;;;;;6.85;60.26;100837.75;1628576;86;21436;-74
2022/04/20 04:27:24;;;;;;;7.70;5.50;;;;;;;6.85;60.39;100842.89;1630602;86;21077;-74
2022/04/20 04:29:49;;;;;;;6.37;5.77;;;;;;;6.85;60.42;100836.47;1623819;87;21065;-74
2022/04/20 04:32:16;;;;;;;8.83;5.78;;;;;;;6.88;60.42;100841.19;1624935;87;21033;-74
2022/04/20 04:34:44;;;;;;;8.40;5.35;;;;;;;6.89;60.58;100843.33;1621999;86;21526;-74
2022/04/20 04:37:13;;;;;;;6.07;5.47;;;;;;;6.89;60.59;100846.77;1622913;86;21452;-76
2022/04/20 04:39:38;;;;;;;5.85;5.12;;;;;;;6.90;60.64;100845.05;1643442;86;21089;-76
2022/04/20 04:42:06;;;;;;;5.60;5.10;;;;;;;6.91;60.69;100839.05;1618213;87;21544;-77
2022/04/20 04:44:32;;;;;;;5.97;5.40;;;;;;;6.93;60.78;100836.06;1622459;87;21486;-78
2022/04/20 04:49:43;;;;;;;7.62;5.30;;;;;;;6.97;60.87;100842.92;1612377;87;21361;-78
2022/04/20 04:52:11;;;;;;;6.20;5.47;;;;;;;6.97;60.86;100841.21;1508144;87;9999635;-78
2022/04/20 04:54:40;;;;;;;7.65;5.35;;;;;;;6.96;60.97;100845.92;1613097;86;20971;-77
2022/04/20 04:57:07;;;;;;;6.33;5.62;;;;;;;6.97;60.97;100843.78;1625125;86;20927;-77
2022/04/20 04:59:37;;;;;;;5.40;4.90;;;;;;;6.98;61.06;100848.07;1622712;86;21448;-76
2022/04/20 05:02:05;;;;;;;5.90;5.17;;;;;;;6.99;61.04;100845.08;1593363;89;20937;-77
2022/04/20 05:04:31;;;;;;;6.53;4.53;;;;;;;6.99;61.15;100846.36;1622382;87;20931;-77
2022/04/20 05:06:58;;;;;;;5.70;4.92;;;;;;;7.01;61.21;100856.22;1624590;86;20971;-76
2022/04/20 05:09:24;;;;;;;8.35;5.00;;;;;;;7.02;61.27;100858.36;1627204;86;21085;-76
2022/04/20 05:11:50;;;;;;;5.37;4.87;;;;;;;7.00;61.34;100854.50;1629387;86;21121;-78
2022/04/20 05:14:17;;;;;;;7.47;4.47;;;;;;;7.00;61.35;100855.79;1645775;85;128592;-76
2022/04/20 05:16:43;;;;;;;6.17;4.87;;;;;;;6.99;61.46;100850.22;1641103;85;21065;-76
2022/04/20 05:19:10;;;;;;;6.23;4.63;;;;;;;6.97;61.44;100858.35;1643111;85;21747;-76
2022/04/20 05:21:36;;;;;;;6.15;4.60;;;;;;;6.93;61.57;100857.48;1642755;85;21180;-76
2022/04/20 05:24:02;;;;;;;6.37;4.40;;;;;;;6.89;61.68;100850.62;1644123;85;21607;-77
2022/04/20 05:26:29;;;;;;;6.08;4.80;;;;;;;6.87;61.72;100855.33;1655299;85;21506;-78
2022/04/20 05:28:57;;;;;;;4.65;4.25;;;;;;;6.82;61.97;100856.59;1648720;85;21082;-76
2022/04/20 05:31:24;;;;;;;4.92;4.45;;;;;;;6.77;61.81;100855.72;1621500;85;21516;-77
2022/04/20 05:33:50;;;;;;;5.77;4.83;;;;;;;6.73;61.97;100858.30;1640584;85;21087;-77
2022/04/20 05:36:19;;;;;;;5.25;4.75;;;;;;;6.67;62.24;100866.84;1645940;85;21128;-75
2022/04/20 05:41:42;;;;;;;5.60;4.75;;;;;;;6.64;62.17;100860.41;1659747;85;21126;-77
2022/04/20 05:44:11;;;;;;;5.87;4.85;;;;;;;6.61;62.60;100861.26;1655626;85;21133;-77
2022/04/20 05:46:39;;;;;;;7.42;5.00;;;;;;;6.56;62.46;100859.52;1646393;85;21567;-77
2022/04/20 05:49:05;;;;;;;5.42;4.67;;;;;;;6.55;62.54;100863.80;1616421;87;21067;-76
2022/04/20 05:51:32;;;;;;;9.08;6.47;;;;;;;6.54;62.66;100860.80;1635403;85;21646;-76
2022/04/20 05:53:59;;;;;;;6.67;4.83;;;;;;;6.52;62.82;100858.64;1621046;87;21566;-76
2022/04/20 05:56:25;;;;;;;6.20;4.70;;;;;;;6.54;62.67;100859.94;1662763;85;21073;-76
2022/04/20 05:58:54;;;;;;;6.92;5.00;;;;;;;6.54;62.73;100854.37;1645478;85;21113;-76
2022/04/20 06:01:22;;;;;;;7.53;5.00;;;;;;;6.53;62.93;100855.66;1653045;85;21645;-76
2022/04/20 06:03:49;;;;;;;8.08;4.97;;;;;;;6.49;62.96;100857.34;1647540;85;20994;-76
2022/04/20 06:06:18;;;;;;;4.40;3.90;;;;;;;6.48;63.00;100851.78;1632534;85;21100;-77
2022/04/20 06:08:45;;;;;;;18.27;9.53;;;;;;;6.47;63.11;100850.06;1657370;85;21049;-76
2022/04/20 06:11:11;;;;;;;49.35;21.15;;;;;;;6.47;63.32;100851.34;1660960;85;21151;-76
2022/04/20 06:13:37;;;;;;;15.08;8.23;;;;;;;6.47;63.25;100853.91;1652055;85;21077;-77
2022/04/20 06:16:07;;;;;;;9.43;6.03;;;;;;;6.49;63.25;100844.50;1661529;85;21093;-75
2022/04/20 06:18:34;;;;;;;7.17;5.53;;;;;;;6.50;63.27;100838.94;1649004;85;21241;-75
2022/04/20 06:21:00;;;;;;;5.87;4.80;;;;;;;6.52;63.49;100840.66;1635512;85;21407;-75
2022/04/20 06:23:26;;;;;;;6.13;5.53;;;;;;;6.54;63.55;100842.81;1664292;85;20974;-75
2022/04/20 06:25:56;;;;;;;5.30;4.80;;;;;;;6.58;63.66;100839.41;1619556;86;20959;-75
2022/04/20 06:28:25;;;;;;;5.47;4.47;;;;;;;6.61;63.85;100832.99;1666054;84;21628;-76
2022/04/20 06:30:58;;;;;;;;;;;;;;;6.59;63.83;100827.42;1639400;85;21246;-76
2022/04/20 06:33:24;;;;;;;6.47;4.47;;;;;;;6.61;64.57;100827.00;1657718;85;20250;-76
2022/04/20 06:35:53;;;;;;;4.72;4.25;;;;;;;6.66;63.98;100833.44;1610238;87;20971;-75
2022/04/20 06:38:21;;;;;;;6.60;4.40;;;;;;;6.72;64.01;100824.04;1635222;85;21515;-75
2022/04/20 06:40:47;;;;;;;5.22;4.30;;;;;;;6.79;64.10;100824.88;1661983;85;21125;-76
2022/04/20 06:43:14;;;;;;;4.58;4.08;;;;;;;6.85;63.99;100819.77;1634857;85;21109;-76
2022/04/20 06:45:40;;;;;;;4.80;4.40;;;;;;;6.91;63.98;100819.34;1598506;87;21025;-77
2022/04/20 06:48:07;;;;;;;4.67;3.67;;;;;;;6.96;64.04;100815.50;1653687;85;20997;-75
2022/04/20 06:50:36;;;;;;;5.15;4.30;;;;;;;7.01;64.22;100808.66;1660979;85;21086;-75
2022/04/20 06:58:41;;;;;;;5.15;3.90;;;;;;;7.18;64.45;100795.40;1640861;85;21099;-77
2022/04/20 07:01:08;;;;;;;4.15;3.70;;;;;;;7.26;64.45;100786.40;1636834;85;21641;-77
2022/04/20 07:03:37;;;;;;;4.50;4.10;;;;;;;7.31;64.45;100782.08;1615540;87;20986;-76
2022/04/20 07:06:04;;;;;;;4.30;3.90;;;;;;;7.38;64.42;100783.80;1645996;85;21007;-77
2022/04/20 07:08:31;;;;;;;;;;;;;;;7.44;64.53;100771.36;1644046;85;21133;-77
2022/04/20 07:10:58;;;;;;;5.17;3.92;;;;;;;7.51;64.95;100771.36;1634462;85;20208;-76
2022/04/20 07:13:24;;;;;;;4.42;3.30;;;;;;;7.52;64.57;100773.07;1643158;85;21089;-75
2022/04/20 07:15:51;;;;;;;5.47;3.83;;;;;;;7.54;64.63;100770.50;1652796;85;21156;-75
2022/04/20 07:18:18;;;;;;;6.03;3.92;;;;;;;7.59;64.70;100767.48;1663038;85;21053;-75
2022/04/20 07:20:44;;;;;;;5.30;4.37;;;;;;;7.66;64.79;100764.05;1645245;85;21105;-75
2022/04/20 07:23:13;;;;;;;5.03;4.53;;;;;;;7.72;64.84;100766.61;1659609;85;21541;-75
2022/04/20 07:25:39;;;;;;;4.87;4.37;;;;;;;7.77;64.79;100761.45;1633400;85;21105;-75
2022/04/20 07:28:07;;;;;;;6.87;4.35;;;;;;;7.84;64.87;100754.97;1649108;85;21159;-75
2022/04/20 07:30:35;;;;;;;4.42;4.03;;;;;;;7.88;64.85;100758.39;1641491;85;21073;-75
2022/04/20 07:33:02;;;;;;;5.00;4.17;;;;;;;7.90;64.93;100754.09;1637556;85;21162;-75
2022/04/20 07:35:30;;;;;;;4.40;4.00;;;;;;;7.91;64.89;100747.66;1655528;85;21124;-75
2022/04/20 07:37:56;;;;;;;6.45;4.72;;;;;;;7.92;64.92;100746.80;1651867;85;20983;-75
2022/04/20 07:40:24;;;;;;;4.00;3.40;;;;;;;7.92;64.94;100744.22;1646304;85;20945;-75
2022/04/20 07:42:54;;;;;;;8.07;4.13;;;;;;;7.89;64.93;100744.23;1651870;85;20974;-76
2022/04/20 07:45:26;;;;;;;4.80;3.42;;;;;;;7.88;65.09;100737.80;1642964;85;21225;-76
2022/04/20 07:47:54;;;;;;;3.60;3.17;;;;;;;7.85;65.12;100730.94;1637322;85;21093;-77
2022/04/20 07:50:25;;;;;;;4.20;3.77;;;;;;;7.88;65.10;100731.36;1666649;85;20970;-76
2022/04/20 07:52:57;;;;;;;4.37;3.37;;;;;;;7.84;65.20;100718.94;1666376;85;20908;-76
2022/04/20 07:55:28;;;;;;;4.67;3.75;;;;;;;7.86;65.28;100722.36;1658110;84;20994;-76
2022/04/20 07:57:59;;;;;;;5.40;3.85;;;;;;;7.86;65.33;100717.20;1648134;86;20978;-76
2022/04/20 08:00:26;;;;;;;3.95;3.58;;;;;;;7.85;65.17;100733.52;1665865;84;21481;-76
2022/04/20 08:03:15;;;;;;;5.20;3.72;;;;;;;7.83;65.28;100739.09;1662195;84;20961;-76
2022/04/20 08:05:49;;;;;;;4.90;3.55;;;;;;;7.81;65.37;100734.81;1626941;86;20933;-76
2022/04/20 08:08:20;;;;;;;4.47;3.47;;;;;;;7.80;65.52;100726.70;1633529;86;21360;-77
2022/04/20 08:10:44;;;;;;;5.85;3.92;;;;;;;7.80;65.57;100726.70;1663269;84;20984;-77
2022/04/20 08:15:57;;;;;;;7.03;3.92;;;;;;;7.79;65.66;100721.98;1624229;86;21382;-77
2022/04/20 08:18:25;;;;;;;4.78;3.67;;;;;;;7.81;65.69;100722.80;1662689;84;21504;-77
2022/04/20 08:20:51;;;;;;;4.03;3.50;;;;;;;7.81;65.76;100718.94;1663457;84;21012;-76
2022/04/20 08:23:18;;;;;;;4.97;3.27;;;;;;;7.82;65.65;100710.36;1650209;84;20929;-76
2022/04/20 08:25:45;;;;;;;5.87;3.98;;;;;;;7.83;65.83;100706.92;1665683;84;21442;-76
2022/04/20 08:28:14;;;;;;;4.03;3.60;;;;;;;7.84;65.93;100699.62;1611587;86;21326;-76
2022/04/20 08:30:40;;;;;;;5.28;3.67;;;;;;;7.85;65.82;100701.34;1666795;84;21088;-77
2022/04/20 08:33:08;;;;;;;4.20;3.80;;;;;;;7.85;65.93;100703.05;1660567;84;26438;-77
2022/04/20 08:35:37;;;;;;;4.15;3.30;;;;;;;7.84;65.95;100701.34;1670313;84;21083;-77
2022/04/20 08:38:05;;;;;;;3.60;3.25;;;;;;;7.82;65.91;100703.92;1663050;84;21084;-77
2022/04/20 08:40:33;;;;;;;6.85;3.72;;;;;;;7.81;66.09;100699.63;1662371;84;21082;-77
2022/04/20 08:43:09;;;;;;;4.75;3.90;;;;;;;7.80;66.10;100706.93;1665436;84;21365;-77
2022/04/20 08:45:37;;;;;;;3.90;3.27;;;;;;;7.81;66.22;100700.06;1666869;84;21096;-77
2022/04/20 08:48:01;;;;;;;3.65;3.33;;;;;;;7.82;66.26;100678.61;1653688;84;21416;-77
2022/04/20 08:50:28;;;;;;;3.87;3.35;;;;;;;7.84;66.29;100667.45;1663666;84;21052;-77
2022/04/20 08:52:56;;;;;;;;;;;;;;;7.86;66.38;100651.56;1668273;84;21164;-77
2022/04/20 08:55:23;;;;;;;5.28;3.72;;;;;;;7.87;67.15;100635.69;1662440;84;20154;-77
2022/04/20 08:57:52;;;;;;;5.60;3.93;;;;;;;7.89;66.50;100639.11;1604160;86;21077;-77
2022/04/20 09:00:24;;;;;;;4.75;4.35;;;;;;;7.90;66.47;100633.95;1627599;86;21270;-77
2022/04/20 09:02:52;;;;;;;4.40;3.90;;;;;;;7.88;66.54;100627.09;1630683;87;21094;-76
2022/04/20 09:05:24;;;;;;;4.78;4.37;;;;;;;7.89;66.56;100642.97;1620825;87;21041;-77
2022/04/20 09:07:49;;;;;;;5.50;4.58;;;;;;;7.88;66.42;100656.27;1621858;87;21032;-77
2022/04/20 09:10:18;;;;;;;5.95;4.60;;;;;;;7.90;66.66;100653.69;1605559;87;21101;-77
2022/04/20 09:12:46;;;;;;;5.70;5.10;;;;;;;7.93;66.77;100656.25;1622441;87;21779;-77
2022/04/20 09:15:15;;;;;;;7.92;4.83;;;;;;;7.94;66.59;100661.83;1622365;87;21073;-77
2022/04/20 09:17:46;;;;;;;5.22;4.53;;;;;;;7.95;66.83;100644.23;1620409;87;21573;-76
2022/04/20 09:20:20;;;;;;;5.05;4.55;;;;;;;8.02;66.85;100660.51;1594776;88;21068;-77
2022/04/20 09:22:59;;;;;;;5.35;4.30;;;;;;;8.08;66.82;100642.02;1622916;87;20930;-76
2022/04/20 09:25:39;;;;;;;5.47;4.92;;;;;;;8.11;66.98;100636.00;1606946;87;21045;-76
2022/04/20 09:28:07;;;;;;;6.03;5.08;;;;;;;8.09;66.90;100641.16;1606941;87;20966;-77
2022/04/20 09:30:40;;;;;;;5.62;5.10;;;;;;;8.13;66.99;100638.98;1623358;87;21089;-77
2022/04/20 09:33:07;;;;;;;6.08;5.03;;;;;;;8.16;67.04;100630.39;1617097;87;20898;-77
2022/04/20 09:35:49;;;;;;;5.62;4.55;;;;;;;8.19;67.08;100631.66;1613320;87;20989;-77
2022/04/20 09:38:21;;;;;;;4.58;4.12;;;;;;;8.25;67.19;100632.48;1619116;87;20998;-77
2022/04/20 09:40:49;;;;;;;5.80;4.70;;;;;;;8.26;67.11;100637.20;1619692;87;20934;-77
2022/04/20 09:43:20;;;;;;;4.85;4.28;;;;;;;8.27;67.06;100632.47;1618498;87;20967;-78
2022/04/20 09:49:09;;;;;;;6.67;3.75;;;;;;;8.25;67.25;100623.89;1633734;87;21439;-76
2022/04/20 09:51:40;;;;;;;3.90;3.50;;;;;;;8.23;67.24;100629.05;1612762;87;20985;-77
2022/04/20 09:54:28;;;;;;;4.00;3.55;;;;;;;8.23;67.49;100625.62;1605318;87;21006;-77
2022/04/20 09:57:11;;;;;;;5.20;3.65;;;;;;;8.25;67.51;100612.30;1626962;86;20923;-77
2022/04/20 10:00:10;;;;;;;5.08;3.52;;;;;;;8.28;67.49;100594.25;1645695;85;21538;-77
2022/04/20 10:02:52;;;;;;;4.30;3.70;;;;;;;8.29;67.67;100595.96;1654149;85;20927;-76
2022/04/20 10:05:22;;;;;;;4.15;3.75;;;;;;;8.28;67.64;100582.23;1646315;85;21048;-75
2022/04/20 10:07:48;;;;;;;4.33;3.65;;;;;;;8.30;67.80;100584.36;1648233;85;20942;-76
2022/04/20 10:10:14;;;;;;;4.28;3.75;;;;;;;8.33;67.75;100591.20;1653665;85;20986;-76
2022/04/20 10:12:43;;;;;;;5.62;3.47;;;;;;;8.37;67.80;100591.61;1648112;85;20927;-76
2022/04/20 10:17:58;;;;;;;5.70;4.10;;;;;;;8.40;67.83;100570.97;1643541;85;21094;-77
2022/04/20 10:20:26;;;;;;;4.78;3.80;;;;;;;8.42;67.91;100553.78;1649344;85;21073;-77
2022/04/20 10:22:54;;;;;;;5.85;4.08;;;;;;;8.42;67.98;100551.64;1646406;85;21065;-76
2022/04/20 10:25:22;;;;;;;4.42;3.80;;;;;;;8.41;68.03;100550.78;1654910;85;20926;-75
2022/04/20 10:27:59;;;;;;;4.72;3.35;;;;;;;8.41;68.08;100545.63;1626736;87;26808;-76
2022/04/20 10:31:01;;;;;;;5.65;3.65;;;;;;;8.43;68.30;100541.75;1645452;85;21157;-76
2022/04/20 10:33:31;;;;;;;5.78;3.92;;;;;;;8.42;68.16;100534.45;1643281;85;21084;-76
2022/04/20 10:36:05;;;;;;;5.95;4.72;;;;;;;8.43;68.31;100534.88;1645005;85;21447;-77
2022/04/20 10:38:32;;;;;;;7.78;4.40;;;;;;;8.39;68.28;100535.77;1645461;85;20938;-76
2022/04/20 10:41:12;;;;;;;6.95;4.83;;;;;;;8.40;68.41;100532.76;1649628;85;21453;-77
2022/04/20 10:43:44;;;;;;;5.92;4.50;;;;;;;8.38;68.37;100527.63;1648747;85;21684;-77
2022/04/20 10:46:19;;;;;;;7.33;4.83;;;;;;;8.34;68.35;100523.36;1661956;85;21077;-77
2022/04/20 10:49:07;;;;;;;5.22;4.72;;;;;;;8.34;68.31;100528.95;1640200;86;21498;-77
2022/04/20 10:51:39;;;;;;;6.78;4.42;;;;;;;8.33;68.61;100522.94;1641775;86;21057;-77
2022/04/20 10:54:29;;;;;;;5.72;4.58;;;;;;;8.25;68.38;100523.44;1629306;87;20993;-77
2022/04/20 10:57:07;;;;;;;6.17;4.65;;;;;;;8.28;68.48;100525.98;1636775;86;21089;-77
2022/04/20 10:59:37;;;;;;;5.62;4.30;;;;;;;8.28;68.58;100519.55;1637908;87;21001;-77
2022/04/20 11:02:06;;;;;;;5.00;4.50;;;;;;;8.27;68.62;100529.00;1640685;86;21573;-77
2022/04/20 11:04:50;;;;;;;5.62;4.55;;;;;;;8.23;68.62;100523.45;1631503;87;21033;-77
2022/04/20 11:07:23;;;;;;;9.38;4.90;;;;;;;8.25;68.77;100518.28;1640002;87;132078;-77
2022/04/20 11:09:59;;;;;;;7.70;4.50;;;;;;;8.29;68.98;100522.55;1651682;86;21176;-77
2022/04/20 11:18:40;;;;;;;6.87;4.22;;;;;;;8.37;68.92;100514.75;1659102;84;21523;-77
2022/04/20 11:21:10;;;;;;;5.33;4.25;;;;;;;8.40;68.92;100510.86;1680485;84;20980;-77
2022/04/20 11:24:06;;;;;;;5.97;4.25;;;;;;;8.44;69.02;100512.11;1681693;84;21427;-77
2022/04/20 11:26:51;;;;;;;6.92;4.78;;;;;;;8.50;69.00;100511.20;1683487;84;21410;-76
2022/04/20 11:29:26;;;;;;;6.22;5.17;;;;;;;8.55;69.03;100500.41;1678035;84;21549;-76
2022/04/20 11:32:00;;;;;;;7.00;4.92;;;;;;;8.63;69.15;100506.35;1673726;85;21175;-77
2022/04/20 11:34:29;;;;;;;8.23;5.42;;;;;;;8.67;69.10;100505.45;1650110;86;21565;-76
2022/04/20 11:37:00;;;;;;;5.60;4.83;;;;;;;8.71;69.19;100504.99;1625409;87;20940;-76
2022/04/20 11:39:30;;;;;;;6.45;4.75;;;;;;;8.73;69.27;100512.27;1633670;87;20933;-76
2022/04/20 11:41:59;;;;;;;5.92;4.70;;;;;;;8.72;69.10;100515.28;1650037;86;21383;-76
2022/04/20 11:44:31;;;;;;;5.15;4.65;;;;;;;8.75;69.21;100504.09;1649854;86;20969;-76
2022/04/20 11:47:07;;;;;;;7.53;4.72;;;;;;;8.81;69.23;100514.34;1637393;87;21485;-76
2022/04/20 11:49:42;;;;;;;6.37;4.37;;;;;;;8.84;69.30;100502.67;1640623;87;21462;-76
2022/04/20 11:52:11;;;;;;;5.92;4.85;;;;;;;8.89;69.27;100515.08;1629576;87;21397;-76
2022/04/20 11:54:40;;;;;;;8.95;5.15;;;;;;;8.88;69.37;100504.34;1640371;86;21458;-76
2022/04/20 11:57:08;;;;;;;;;;;;;;;8.88;69.32;100501.77;1643067;87;20928;-76
2022/04/20 11:59:46;;;;;;;5.78;4.90;;;;;;;8.85;69.96;100499.23;1640068;86;20127;-76
2022/04/20 12:02:25;;;;;;;5.65;5.15;;;;;;;8.87;69.43;100499.62;1639470;86;21482;-76
2022/04/20 12:05:09;;;;;;;10.10;5.55;;;;;;;8.87;69.36;100511.23;1633789;87;21545;-76
2022/04/20 12:07:37;;;;;;;6.97;5.83;;;;;;;8.88;69.51;100509.50;1637786;86;21381;-77
2022/04/20 12:10:04;;;;;;;7.73;5.67;;;;;;;8.88;69.52;100511.66;1643531;86;21580;-76